Time;durP1;ratioP1;P1;durP2;ratioP2;P2;SDS_P1;SDS_P2;PMS_P1;PMS_P2;Temp;Humidity;BMP_temperature;BMP_pressure;BME280_temperature;BME280_humidity;BME280_pressure;Samples;Min_cycle;Max_cycle;Signal;HPM_P1;HPM_P2
2022/06/01 00:01:05;;;;;;;16.88;14.20;;;;;;;;;;4986970;28;20143;-85
2022/06/01 00:03:32;;;;;;;20.65;13.68;;;;;;;;;;4973799;28;20126;-84
2022/06/01 00:05:58;;;;;;;21.40;14.73;;;;;;;;;;4971601;28;20051;-85
2022/06/01 00:08:25;;;;;;;18.80;14.50;;;;;;;;;;5004070;28;20042;-84
2022/06/01 00:10:51;;;;;;;15.48;13.43;;;;;;;;;;4982921;28;20566;-84
2022/06/01 00:13:19;;;;;;;17.05;13.48;;;;;;;;;;4971454;28;20126;-85
2022/06/01 00:15:45;;;;;;;19.40;13.60;;;;;;;;;;4958299;28;20046;-85
2022/06/01 00:18:11;;;;;;;17.23;14.35;;;;;;;;;;4971279;28;20050;-85
2022/06/01 00:20:38;;;;;;;20.42;14.73;;;;;;;;;;4972192;28;20532;-78
2022/06/01 00:23:06;;;;;;;18.63;14.50;;;;;;;;;;4971047;28;20126;-78
2022/06/01 00:25:32;;;;;;;20.05;15.55;;;;;;;;;;4971391;28;20121;-84
2022/06/01 00:27:59;;;;;;;19.33;15.40;;;;;;;;;;4976361;28;20042;-85
2022/06/01 00:30:26;;;;;;;18.58;13.95;;;;;;;;;;4991971;28;20042;-85
2022/06/01 00:32:52;;;;;;;18.83;14.60;;;;;;;;;;4985971;28;20041;-84
2022/06/01 00:35:19;;;;;;;18.33;15.07;;;;;;;;;;4979968;28;20042;-84
2022/06/01 00:37:46;;;;;;;18.77;14.50;;;;;;;;;;4976439;28;20061;-85
2022/06/01 00:40:13;;;;;;;19.00;14.95;;;;;;;;;;4971368;28;20047;-78
2022/06/01 00:42:40;;;;;;;21.23;15.27;;;;;;;;;;4981183;28;20050;-78
2022/06/01 00:45:07;;;;;;;19.40;14.95;;;;;;;;;;4973183;28;20050;-77
2022/06/01 00:47:33;;;;;;;18.80;14.88;;;;;;;;;;4970268;28;20078;-78
2022/06/01 00:50:06;;;;;;;20.13;14.88;;;;;;;;;;4970459;28;20035;-77
2022/06/01 00:52:36;;;;;;;22.23;16.50;;;;;;;;;;4964450;28;20057;-77
2022/06/01 00:55:14;;;;;;;22.30;16.70;;;;;;;;;;5003387;28;20878;-77
2022/06/01 00:57:41;;;;;;;20.00;16.10;;;;;;;;;;5003653;28;20509;-78
2022/06/01 01:00:20;;;;;;;20.58;15.95;;;;;;;;;;5002546;28;20502;-78
2022/06/01 01:02:47;;;;;;;19.58;16.40;;;;;;;;;;4986811;28;20047;-78
2022/06/01 01:05:13;;;;;;;21.60;15.80;;;;;;;;;;4970601;28;20558;-78
2022/06/01 01:07:40;;;;;;;20.10;16.48;;;;;;;;;;4970338;28;20126;-77
2022/06/01 01:10:07;;;;;;;19.08;14.35;;;;;;;;;;4970324;28;20053;-77
2022/06/01 01:12:56;;;;;;;19.45;16.13;;;;;;;;;;4969722;28;20062;-77
2022/06/01 01:15:20;;;;;;;;;;;;;;;;;;4970030;28;20430;-78
2022/06/01 01:17:49;;;;;;;21.33;15.93;;;;;;;;;;4969976;28;19926;-77
2022/06/01 01:20:16;;;;;;;20.83;15.77;;;;;;;;;;5002375;28;20045;-77
2022/06/01 01:22:48;;;;;;;21.83;16.27;;;;;;;;;;4986470;28;20042;-77
2022/06/01 01:25:23;;;;;;;21.30;16.88;;;;;;;;;;5002155;28;20078;-77
2022/06/01 01:27:53;;;;;;;21.52;15.88;;;;;;;;;;5002311;28;20074;-78
2022/06/01 01:30:23;;;;;;;23.27;17.08;;;;;;;;;;4970508;28;20046;-77
2022/06/01 01:32:49;;;;;;;22.55;17.60;;;;;;;;;;5002440;28;20442;-77
2022/06/01 01:35:16;;;;;;;23.05;17.38;;;;;;;;;;5002029;28;20129;-77
2022/06/01 01:37:43;;;;;;;23.02;17.65;;;;;;;;;;5002272;28;20518;-77
2022/06/01 01:40:09;;;;;;;22.83;17.15;;;;;;;;;;5001668;28;20074;-77
2022/06/01 01:42:35;;;;;;;23.08;18.08;;;;;;;;;;4985206;28;20101;-77
2022/06/01 01:45:08;;;;;;;24.67;17.17;;;;;;;;;;4969957;28;20385;-77
2022/06/01 01:47:38;;;;;;;23.73;18.13;;;;;;;;;;5001390;28;20064;-77
2022/06/01 01:50:07;;;;;;;26.05;18.90;;;;;;;;;;4970165;28;20450;-77
2022/06/01 01:52:34;;;;;;;23.38;18.50;;;;;;;;;;5001478;28;20065;-77
2022/06/01 01:55:03;;;;;;;24.35;18.80;;;;;;;;;;4969894;28;20442;-86
2022/06/01 01:57:29;;;;;;;25.95;19.98;;;;;;;;;;5015871;28;20038;-86
2022/06/01 02:00:15;;;;;;;28.13;20.60;;;;;;;;;;4983959;28;20078;-86
2022/06/01 02:03:00;;;;;;;29.92;20.77;;;;;;;;;;4971028;28;20042;-85
2022/06/01 02:08:31;;;;;;;28.63;21.05;;;;;;;;;;4980965;28;20047;-85
2022/06/01 02:13:49;;;;;;;31.13;22.40;;;;;;;;;;5006801;28;20059;-83
2022/06/01 02:16:15;;;;;;;34.00;23.33;;;;;;;;;;5003893;28;20514;-85
2022/06/01 02:18:49;;;;;;;33.13;22.58;;;;;;;;;;4987823;28;20066;-84
2022/06/01 02:21:25;;;;;;;33.67;22.58;;;;;;;;;;4976780;28;20118;-84
2022/06/01 02:23:51;;;;;;;;;;;;;;;;;;4988886;28;20113;-85
2022/06/01 02:26:18;;;;;;;28.35;19.92;;;;;;;;;;4971818;28;20305;-85
2022/06/01 02:28:46;;;;;;;26.52;19.27;;;;;;;;;;4967397;28;20090;-85
2022/06/01 02:31:13;;;;;;;26.98;19.23;;;;;;;;;;4995044;28;20081;-86
2022/06/01 02:33:40;;;;;;;26.25;18.17;;;;;;;;;;4981610;28;20072;-85
2022/06/01 02:36:07;;;;;;;23.80;17.15;;;;;;;;;;4971801;28;20173;-85
2022/06/01 02:38:36;;;;;;;26.15;17.67;;;;;;;;;;4980017;28;20498;-85
2022/06/01 02:41:03;;;;;;;22.80;16.02;;;;;;;;;;5004192;28;20038;-85
2022/06/01 02:43:29;;;;;;;19.73;14.82;;;;;;;;;;4996347;28;20073;-85
2022/06/01 02:45:56;;;;;;;19.95;14.75;;;;;;;;;;4975178;28;20055;-84
2022/06/01 02:48:22;;;;;;;18.67;14.00;;;;;;;;;;4978973;28;20050;-85
2022/06/01 02:50:48;;;;;;;19.20;13.15;;;;;;;;;;4971733;28;20566;-85
2022/06/01 02:53:15;;;;;;;16.45;12.65;;;;;;;;;;5000895;28;20061;-86
2022/06/01 02:55:41;;;;;;;17.58;13.27;;;;;;;;;;4988440;28;20051;-85
2022/06/01 02:58:07;;;;;;;17.70;13.32;;;;;;;;;;4973044;28;20119;-86
2022/06/01 03:00:40;;;;;;;18.90;14.10;;;;;;;;;;4969419;28;20097;-85
2022/06/01 03:03:08;;;;;;;19.70;13.88;;;;;;;;;;4986470;28;20069;-85
2022/06/01 03:05:36;;;;;;;20.10;14.77;;;;;;;;;;4965225;28;20074;-86
2022/06/01 03:08:02;;;;;;;20.38;14.35;;;;;;;;;;4955889;28;20319;-84
2022/06/01 03:10:29;;;;;;;19.48;14.10;;;;;;;;;;5005254;28;20151;-85
2022/06/01 03:12:55;;;;;;;18.00;13.43;;;;;;;;;;5005212;28;20525;-85
2022/06/01 03:15:23;;;;;;;16.50;12.38;;;;;;;;;;5004673;28;20039;-85
2022/06/01 03:17:49;;;;;;;20.40;14.38;;;;;;;;;;5000805;28;20101;-85
2022/06/01 03:20:16;;;;;;;20.38;12.95;;;;;;;;;;4969986;28;20134;-85
2022/06/01 03:22:43;;;;;;;17.27;11.90;;;;;;;;;;4975094;28;20411;-85
2022/06/01 03:25:14;;;;;;;19.40;13.32;;;;;;;;;;4991862;28;20729;-85
2022/06/01 03:27:41;;;;;;;17.67;11.95;;;;;;;;;;4996682;28;20047;-85
2022/06/01 03:30:10;;;;;;;18.27;12.68;;;;;;;;;;5000264;28;20047;-85
2022/06/01 03:32:36;;;;;;;17.55;12.98;;;;;;;;;;4972568;28;20375;-84
2022/06/01 03:35:02;;;;;;;16.65;12.43;;;;;;;;;;4972724;28;20499;-84
2022/06/01 03:37:28;;;;;;;16.23;11.98;;;;;;;;;;4982222;28;20121;-84
2022/06/01 03:39:54;;;;;;;16.77;11.50;;;;;;;;;;4972411;28;20557;-85
2022/06/01 03:42:20;;;;;;;15.80;11.88;;;;;;;;;;4977072;28;20034;-85
2022/06/01 03:47:32;;;;;;;16.83;12.23;;;;;;;;;;4975421;28;20047;-84
2022/06/01 03:49:58;;;;;;;19.25;13.45;;;;;;;;;;4991662;28;20494;-86
2022/06/01 03:52:25;;;;;;;18.20;13.23;;;;;;;;;;4977682;28;20117;-86
2022/06/01 03:54:51;;;;;;;19.35;13.40;;;;;;;;;;4975473;28;20509;-76
2022/06/01 03:57:17;;;;;;;21.48;13.63;;;;;;;;;;4976092;28;20042;-76
2022/06/01 03:59:44;;;;;;;20.17;13.82;;;;;;;;;;5004083;28;20093;-76
2022/06/01 04:02:10;;;;;;;20.23;14.05;;;;;;;;;;5001556;28;20097;-77
2022/06/01 04:04:37;;;;;;;21.88;15.48;;;;;;;;;;4967686;28;20466;-76
2022/06/01 04:07:03;;;;;;;24.38;16.25;;;;;;;;;;4990616;28;20415;-76
2022/06/01 04:09:29;;;;;;;29.65;18.30;;;;;;;;;;4970631;28;20142;-76
2022/06/01 04:11:56;;;;;;;31.52;21.58;;;;;;;;;;4990950;28;20078;-76
2022/06/01 04:14:22;;;;;;;33.78;22.48;;;;;;;;;;4964112;28;20519;-76
2022/06/01 04:16:49;;;;;;;37.30;23.02;;;;;;;;;;4997261;28;20058;-77
2022/06/01 04:19:15;;;;;;;35.83;23.15;;;;;;;;;;4968518;28;20049;-76
2022/06/01 04:21:44;;;;;;;33.53;23.08;;;;;;;;;;4968246;28;20479;-76
2022/06/01 04:24:11;;;;;;;34.90;24.02;;;;;;;;;;4992429;28;20051;-76
2022/06/01 04:26:38;;;;;;;35.75;24.70;;;;;;;;;;4995342;28;20042;-76
2022/06/01 04:29:04;;;;;;;33.35;22.85;;;;;;;;;;4985176;28;20057;-76
2022/06/01 04:31:30;;;;;;;33.78;23.50;;;;;;;;;;4999725;28;20057;-77
2022/06/01 04:33:56;;;;;;;35.85;25.00;;;;;;;;;;4965505;28;20094;-76
2022/06/01 04:36:22;;;;;;;34.55;24.73;;;;;;;;;;4978007;28;20042;-76
2022/06/01 04:38:49;;;;;;;36.03;25.15;;;;;;;;;;4962113;28;20055;-76
2022/06/01 04:41:15;;;;;;;37.17;24.90;;;;;;;;;;4965132;28;20070;-76
2022/06/01 04:43:41;;;;;;;33.25;23.05;;;;;;;;;;4995178;28;20054;-76
2022/06/01 04:46:07;;;;;;;33.38;24.48;;;;;;;;;;4973299;28;20101;-76
2022/06/01 04:48:33;;;;;;;34.97;25.25;;;;;;;;;;4969039;28;20525;-76
2022/06/01 04:50:59;;;;;;;33.25;24.13;;;;;;;;;;4960831;28;20842;-76
2022/06/01 04:53:26;;;;;;;33.60;24.52;;;;;;;;;;4978306;28;20042;-76
2022/06/01 04:55:52;;;;;;;35.70;24.92;;;;;;;;;;4967715;28;20515;-76
2022/06/01 04:58:18;;;;;;;36.08;24.23;;;;;;;;;;4975761;28;20104;-76
2022/06/01 05:00:45;;;;;;;31.95;23.75;;;;;;;;;;4967508;28;20506;-77
2022/06/01 05:03:12;;;;;;;35.58;24.83;;;;;;;;;;4954503;28;20514;-76
2022/06/01 05:05:39;;;;;;;33.53;24.38;;;;;;;;;;5001963;28;20049;-76
2022/06/01 05:08:09;;;;;;;28.45;21.55;;;;;;;;;;4975871;28;20083;-77
2022/06/01 05:10:35;;;;;;;35.05;24.40;;;;;;;;;;4995961;28;20089;-76
2022/06/01 05:13:02;;;;;;;32.53;24.23;;;;;;;;;;4969504;28;20076;-76
2022/06/01 05:15:28;;;;;;;31.88;24.17;;;;;;;;;;4982429;28;20035;-76
2022/06/01 05:17:54;;;;;;;31.23;23.25;;;;;;;;;;4978135;28;20089;-77
2022/06/01 05:20:20;;;;;;;33.80;23.40;;;;;;;;;;4968411;28;20047;-76
2022/06/01 05:22:47;;;;;;;26.58;19.27;;;;;;;;;;4972678;28;20062;-77
2022/06/01 05:25:13;;;;;;;30.33;22.23;;;;;;;;;;4953372;28;20042;-76
2022/06/01 05:27:39;;;;;;;26.80;21.10;;;;;;;;;;4967376;28;20139;-77
2022/06/01 05:30:06;;;;;;;29.50;20.75;;;;;;;;;;4972725;28;20101;-86
2022/06/01 05:32:32;;;;;;;27.50;20.00;;;;;;;;;;4971294;28;20042;-77
2022/06/01 05:34:58;;;;;;;29.23;20.02;;;;;;;;;;4958416;28;20071;-77
2022/06/01 05:37:24;;;;;;;27.40;19.95;;;;;;;;;;4984929;28;20094;-77
2022/06/01 05:39:51;;;;;;;28.10;19.52;;;;;;;;;;4984904;28;20047;-77
2022/06/01 05:42:21;;;;;;;24.63;18.33;;;;;;;;;;4975303;28;20038;-77
2022/06/01 05:44:49;;;;;;;20.92;16.90;;;;;;;;;;4959660;28;20050;-77
2022/06/01 05:47:16;;;;;;;19.83;15.90;;;;;;;;;;4986359;28;20058;-77
2022/06/01 05:49:42;;;;;;;19.17;14.95;;;;;;;;;;4983707;28;20043;-77
2022/06/01 05:52:08;;;;;;;18.95;14.77;;;;;;;;;;4985283;28;20086;-77
2022/06/01 05:54:36;;;;;;;18.15;14.43;;;;;;;;;;4995982;28;20190;-77
2022/06/01 05:57:03;;;;;;;19.67;14.90;;;;;;;;;;4967799;28;20043;-77
2022/06/01 05:59:29;;;;;;;18.92;13.82;;;;;;;;;;4973172;28;20043;-90
2022/06/01 06:01:55;;;;;;;17.33;13.90;;;;;;;;;;4956972;28;20043;-83
2022/06/01 06:04:21;;;;;;;17.25;13.35;;;;;;;;;;4973255;28;20093;-86
2022/06/01 06:06:47;;;;;;;17.27;13.50;;;;;;;;;;4973583;28;20058;-90
2022/06/01 06:09:13;;;;;;;17.58;13.55;;;;;;;;;;5000254;28;20038;-86
2022/06/01 06:11:40;;;;;;;16.75;13.35;;;;;;;;;;5008417;28;20042;-87
2022/06/01 06:14:06;;;;;;;16.92;13.40;;;;;;;;;;4997745;28;20046;-91
2022/06/01 06:16:37;;;;;;;16.33;12.40;;;;;;;;;;5010913;28;20035;-84
2022/06/01 06:19:04;;;;;;;15.60;12.35;;;;;;;;;;4983823;28;20053;-86
2022/06/01 06:21:31;;;;;;;7.72;4.78;;;;;;;;;;4968608;28;20046;-77
2022/06/01 06:24:00;;;;;;;3.13;2.30;;;;;;;;;;4970967;28;20510;-77
2022/06/01 06:26:26;;;;;;;3.80;2.30;;;;;;;;;;5003303;28;20044;-76
2022/06/01 06:28:53;;;;;;;3.42;2.10;;;;;;;;;;4979388;28;20129;-76
2022/06/01 06:31:19;;;;;;;2.85;1.92;;;;;;;;;;4983253;28;20085;-77
2022/06/01 06:33:45;;;;;;;3.20;1.73;;;;;;;;;;4983397;28;20443;-76
2022/06/01 06:36:14;;;;;;;2.97;1.52;;;;;;;;;;5005147;28;20148;-76
2022/06/01 06:38:40;;;;;;;2.65;1.50;;;;;;;;;;4984550;28;20047;-76
2022/06/01 06:41:07;;;;;;;2.50;1.30;;;;;;;;;;5004448;28;20082;-77
2022/06/01 06:43:34;;;;;;;2.00;1.30;;;;;;;;;;4986232;28;20050;-77
2022/06/01 06:46:11;;;;;;;2.10;1.10;;;;;;;;;;4984039;28;20081;-76
2022/06/01 06:48:37;;;;;;;3.08;1.40;;;;;;;;;;4989527;28;20057;-77
2022/06/01 06:51:04;;;;;;;2.63;1.27;;;;;;;;;;5007027;28;20190;-77
2022/06/01 06:53:30;;;;;;;2.60;1.55;;;;;;;;;;4970093;28;20038;-77
2022/06/01 06:55:56;;;;;;;2.35;1.50;;;;;;;;;;4984481;28;20039;-76
2022/06/01 06:58:23;;;;;;;2.53;1.60;;;;;;;;;;4993163;28;20125;-76
2022/06/01 07:00:49;;;;;;;2.85;1.85;;;;;;;;;;4969851;28;20039;-76
2022/06/01 07:03:15;;;;;;;2.83;1.65;;;;;;;;;;4972334;28;20070;-76
2022/06/01 07:08:27;;;;;;;4.95;2.30;;;;;;;;;;5017792;28;20050;-76
2022/06/01 07:10:54;;;;;;;3.58;1.70;;;;;;;;;;4988034;28;20051;-77
2022/06/01 07:13:21;;;;;;;3.20;1.48;;;;;;;;;;4995279;28;20039;-77
2022/06/01 07:15:48;;;;;;;2.58;1.42;;;;;;;;;;4980664;28;20051;-76
2022/06/01 07:18:14;;;;;;;2.45;1.42;;;;;;;;;;4981073;28;20138;-76
2022/06/01 07:20:40;;;;;;;2.60;1.25;;;;;;;;;;4978828;28;20059;-77
2022/06/01 07:23:07;;;;;;;2.60;1.52;;;;;;;;;;4970519;28;20390;-76
2022/06/01 07:25:33;;;;;;;2.08;1.50;;;;;;;;;;4970323;28;20035;-77
2022/06/01 07:27:59;;;;;;;3.20;1.40;;;;;;;;;;4990610;28;20089;-77
2022/06/01 07:30:25;;;;;;;2.17;1.40;;;;;;;;;;4996095;28;20035;-77
2022/06/01 07:32:51;;;;;;;2.38;1.50;;;;;;;;;;4998689;28;20052;-77
2022/06/01 07:35:18;;;;;;;2.45;1.65;;;;;;;;;;4969344;28;20058;-77
2022/06/01 07:43:15;;;;;;;3.10;2.17;;;;;;;;;;4978165;28;20047;-77
2022/06/01 07:45:43;;;;;;;2.75;1.83;;;;;;;;;;4979422;28;20069;-77
2022/06/01 07:48:09;;;;;;;2.83;1.92;;;;;;;;;;4999274;28;20042;-77
2022/06/01 07:50:36;;;;;;;4.05;2.00;;;;;;;;;;4964900;28;20187;-76
2022/06/01 07:53:03;;;;;;;2.53;1.70;;;;;;;;;;4999965;28;20049;-76
2022/06/01 07:55:29;;;;;;;2.63;1.70;;;;;;;;;;4970368;28;20051;-76
2022/06/01 07:57:55;;;;;;;3.58;1.75;;;;;;;;;;4982844;28;20118;-77
2022/06/01 08:00:22;;;;;;;3.45;1.80;;;;;;;;;;4984293;28;20049;-77
2022/06/01 08:02:48;;;;;;;1.92;1.50;;;;;;;;;;4986717;28;20049;-79
2022/06/01 08:05:15;;;;;;;2.40;1.60;;;;;;;;;;4971173;28;20126;-77
2022/06/01 08:07:42;;;;;;;2.83;1.70;;;;;;;;;;4970754;28;20047;-77
2022/06/01 08:10:08;;;;;;;2.42;1.58;;;;;;;;;;5009671;28;20049;-77
2022/06/01 08:15:19;;;;;;;4.25;2.10;;;;;;;;;;4970660;28;20074;-78
2022/06/01 08:17:47;;;;;;;3.20;2.25;;;;;;;;;;5003111;28;20066;-77
2022/06/01 08:20:13;;;;;;;3.40;2.30;;;;;;;;;;4969822;28;20086;-77
2022/06/01 08:22:40;;;;;;;2.80;2.05;;;;;;;;;;4972239;28;20031;-87
2022/06/01 08:25:07;;;;;;;2.67;2.08;;;;;;;;;;4989155;28;20057;-88
2022/06/01 08:27:33;;;;;;;3.58;2.50;;;;;;;;;;4963242;28;20054;-86
2022/06/01 08:29:59;;;;;;;3.55;2.10;;;;;;;;;;4979817;28;20502;-84
2022/06/01 08:32:26;;;;;;;3.38;2.22;;;;;;;;;;5002803;28;20426;-84
2022/06/01 08:34:52;;;;;;;4.32;2.60;;;;;;;;;;4972455;28;20073;-85
2022/06/01 08:37:18;;;;;;;3.72;2.42;;;;;;;;;;4975093;28;20097;-86
2022/06/01 08:39:44;;;;;;;2.90;2.20;;;;;;;;;;4973666;28;20039;-84
2022/06/01 08:42:15;;;;;;;2.78;2.05;;;;;;;;;;4996400;28;20125;-85
2022/06/01 08:44:43;;;;;;;5.35;2.67;;;;;;;;;;4974398;28;20126;-84
2022/06/01 08:47:12;;;;;;;3.58;2.45;;;;;;;;;;4974069;28;20546;-85
2022/06/01 08:49:39;;;;;;;2.92;2.17;;;;;;;;;;4972637;28;20104;-83
2022/06/01 08:52:05;;;;;;;3.17;2.05;;;;;;;;;;4974946;28;20507;-84
2022/06/01 08:54:32;;;;;;;5.88;2.53;;;;;;;;;;4969791;28;20176;-85
2022/06/01 08:57:04;;;;;;;3.25;2.30;;;;;;;;;;4999778;28;20053;-86
2022/06/01 08:59:36;;;;;;;3.35;2.00;;;;;;;;;;4974266;28;20486;-84
2022/06/01 09:02:17;;;;;;;3.83;2.20;;;;;;;;;;4973734;28;20471;-84
2022/06/01 09:04:53;;;;;;;3.45;2.20;;;;;;;;;;4973958;28;20105;-86
2022/06/01 09:07:30;;;;;;;3.28;1.88;;;;;;;;;;4975258;28;20046;-85
2022/06/01 09:10:15;;;;;;;2.55;1.50;;;;;;;;;;4975015;28;20047;-77
2022/06/01 09:12:41;;;;;;;2.40;1.50;;;;;;;;;;4970050;28;20031;-76
2022/06/01 09:15:17;;;;;;;2.13;1.30;;;;;;;;;;4970115;28;20058;-76
2022/06/01 09:17:43;;;;;;;2.53;1.40;;;;;;;;;;4986712;28;20100;-76
2022/06/01 09:22:59;;;;;;;3.28;1.70;;;;;;;;;;5002964;28;20419;-75
2022/06/01 09:25:27;;;;;;;2.90;1.42;;;;;;;;;;5003913;28;20042;-75
2022/06/01 09:27:59;;;;;;;2.97;1.35;;;;;;;;;;4977643;28;20059;-75
2022/06/01 09:30:26;;;;;;;2.75;1.67;;;;;;;;;;4970191;28;20490;-76
2022/06/01 09:33:14;;;;;;;4.07;1.50;;;;;;;;;;5002536;28;20498;-75
2022/06/01 09:35:58;;;;;;;2.30;1.55;;;;;;;;;;5002272;28;20509;-75
2022/06/01 09:38:41;;;;;;;4.30;1.98;;;;;;;;;;4971470;28;20394;-76
2022/06/01 09:41:12;;;;;;;3.05;1.80;;;;;;;;;;4968515;28;20039;-85
2022/06/01 09:43:42;;;;;;;3.13;1.60;;;;;;;;;;4988514;28;20042;-84
2022/06/01 09:46:08;;;;;;;2.33;1.10;;;;;;;;;;4972868;28;20085;-85
2022/06/01 09:48:36;;;;;;;1.52;0.90;;;;;;;;;;4960454;28;20080;-86
2022/06/01 09:51:08;;;;;;;1.52;0.80;;;;;;;;;;4977540;28;20376;-88
2022/06/01 09:54:07;;;;;;;1.08;0.60;;;;;;;;;;4970506;28;20047;-83
2022/06/01 09:56:40;;;;;;;1.50;0.90;;;;;;;;;;4966090;28;20038;-77
2022/06/01 10:07:43;;;;;;;0.90;0.60;;;;;;;;;;4929212;28;20051;-77
2022/06/01 10:10:18;;;;;;;1.40;0.70;;;;;;;;;;4935838;29;20035;-83
2022/06/01 10:12:49;;;;;;;1.92;1.00;;;;;;;;;;4951716;28;20054;-74
2022/06/01 10:15:31;;;;;;;2.00;0.93;;;;;;;;;;4986234;28;20049;-75
2022/06/01 10:18:00;;;;;;;1.95;1.25;;;;;;;;;;4972996;28;20462;-74
2022/06/01 10:20:33;;;;;;;30.30;3.25;;;;;;;;;;4985926;28;20043;-84
2022/06/01 10:23:05;;;;;;;8.38;1.40;;;;;;;;;;4960008;28;20611;-79
2022/06/01 10:25:52;;;;;;;2.20;1.10;;;;;;;;;;4986404;28;20464;-88
2022/06/01 10:28:25;;;;;;;2.83;0.90;;;;;;;;;;4971306;28;20490;-81
2022/06/01 10:30:52;;;;;;;1.92;1.10;;;;;;;;;;4998199;28;20049;-83
2022/06/01 10:33:22;;;;;;;2.67;1.10;;;;;;;;;;4974739;28;20108;-79
2022/06/01 10:35:48;;;;;;;3.33;1.30;;;;;;;;;;4961837;28;20043;-84
2022/06/01 10:38:20;;;;;;;3.13;1.50;;;;;;;;;;4961994;28;20466;-84
2022/06/01 10:40:53;;;;;;;2.05;1.50;;;;;;;;;;4970882;28;20506;-83
2022/06/01 10:43:35;;;;;;;3.03;1.30;;;;;;;;;;4992458;28;20051;-86
2022/06/01 10:46:08;;;;;;;1.92;1.27;;;;;;;;;;4975900;28;20050;-86
2022/06/01 10:48:37;;;;;;;2.00;1.30;;;;;;;;;;4962092;28;20046;-85
2022/06/01 10:51:07;;;;;;;2.28;1.10;;;;;;;;;;4968981;28;20137;-84
2022/06/01 10:53:52;;;;;;;1.98;1.10;;;;;;;;;;4986887;28;20421;-86
2022/06/01 10:56:20;;;;;;;2.10;1.23;;;;;;;;;;4974614;28;20054;-87
2022/06/01 10:58:46;;;;;;;2.97;1.20;;;;;;;;;;4966391;28;20047;-87
2022/06/01 11:01:25;;;;;;;1.90;1.20;;;;;;;;;;4971829;28;20042;-87
2022/06/01 11:04:04;;;;;;;1.90;0.98;;;;;;;;;;4979375;28;20046;-86
2022/06/01 11:06:49;;;;;;;1.98;1.20;;;;;;;;;;4972535;28;20056;-86
2022/06/01 11:09:37;;;;;;;2.63;1.15;;;;;;;;;;4982124;28;20050;-85
2022/06/01 11:12:13;;;;;;;2.20;1.00;;;;;;;;;;4993574;28;20078;-86
2022/06/01 11:14:42;;;;;;;2.42;1.10;;;;;;;;;;5020000;28;20042;-86
2022/06/01 11:17:18;;;;;;;1.60;0.90;;;;;;;;;;5008946;28;20143;-86
2022/06/01 11:19:44;;;;;;;1.85;1.00;;;;;;;;;;4981327;28;20165;-86
2022/06/01 11:22:37;;;;;;;3.10;1.17;;;;;;;;;;4989537;28;20046;-86
2022/06/01 11:25:07;;;;;;;2.20;1.20;;;;;;;;;;4970054;28;20058;-85
2022/06/01 11:27:41;;;;;;;2.10;1.25;;;;;;;;;;5014625;28;20042;-86
2022/06/01 11:30:21;;;;;;;2.50;1.38;;;;;;;;;;4978689;28;20388;-84
2022/06/01 11:32:58;;;;;;;3.85;1.48;;;;;;;;;;4973071;28;20137;-83
2022/06/01 11:35:30;;;;;;;2.28;1.23;;;;;;;;;;5009984;28;20387;-83
2022/06/01 11:38:08;;;;;;;2.55;1.25;;;;;;;;;;4983770;28;20550;-84
2022/06/01 11:40:37;;;;;;;3.17;1.60;;;;;;;;;;4978198;28;20545;-82
2022/06/01 11:43:11;;;;;;;3.63;1.77;;;;;;;;;;5010334;28;20061;-84
2022/06/01 11:45:43;;;;;;;4.15;2.10;;;;;;;;;;5007894;28;20434;-85
2022/06/01 11:48:11;;;;;;;3.95;2.30;;;;;;;;;;4983841;28;20556;-86
2022/06/01 11:50:48;;;;;;;4.13;2.33;;;;;;;;;;5006119;28;20054;-85
2022/06/01 11:53:33;;;;;;;3.38;2.17;;;;;;;;;;5000166;28;20046;-84
2022/06/01 11:56:25;;;;;;;2.90;1.85;;;;;;;;;;4977352;28;20038;-76
2022/06/01 11:58:58;;;;;;;3.75;1.60;;;;;;;;;;4953098;28;20494;-76
2022/06/01 12:01:35;;;;;;;3.72;2.08;;;;;;;;;;5004026;28;20039;-77
2022/06/01 12:04:11;;;;;;;4.47;2.40;;;;;;;;;;5014630;28;20053;-76
2022/06/01 12:06:49;;;;;;;5.40;2.70;;;;;;;;;;4990691;28;20058;-77
2022/06/01 12:09:22;;;;;;;4.45;2.42;;;;;;;;;;5003744;28;20055;-77
2022/06/01 12:11:48;;;;;;;2.50;1.90;;;;;;;;;;4970733;28;20133;-76
2022/06/01 12:14:35;;;;;;;1.08;0.70;;;;;;;;;;5011310;28;20034;-77
2022/06/01 12:17:17;;;;;;;1.25;0.60;;;;;;;;;;4973638;28;20122;-77
2022/06/01 12:19:47;;;;;;;2.35;0.65;;;;;;;;;;4970481;28;20055;-76
2022/06/01 12:28:31;;;;;;;0.98;0.60;;;;;;;;;;4915078;29;20088;-76
2022/06/01 12:31:12;;;;;;;1.40;0.80;;;;;;;;;;4915391;29;20075;-76
2022/06/01 12:34:01;;;;;;;2.70;0.90;;;;;;;;;;4938700;29;20078;-85
2022/06/01 12:36:47;;;;;;;2.35;0.90;;;;;;;;;;5003897;28;20082;-75
2022/06/01 12:39:21;;;;;;;1.05;0.50;;;;;;;;;;4950519;28;20089;-75
2022/06/01 12:41:50;;;;;;;4.13;0.80;;;;;;;;;;4985691;28;20517;-75
2022/06/01 12:44:17;;;;;;;0.80;0.50;;;;;;;;;;5002773;28;20483;-75
2022/06/01 12:46:48;;;;;;;0.80;0.50;;;;;;;;;;5003156;28;20057;-74
2022/06/01 12:49:33;;;;;;;1.20;0.50;;;;;;;;;;5003002;28;20050;-74
2022/06/01 12:52:08;;;;;;;1.08;0.60;;;;;;;;;;5006206;28;20411;-75
2022/06/01 12:54:36;;;;;;;1.70;0.98;;;;;;;;;;4980280;28;20046;-73
2022/06/01 12:57:03;;;;;;;2.25;1.00;;;;;;;;;;5004236;28;20406;-75
2022/06/01 12:59:34;;;;;;;1.88;1.27;;;;;;;;;;4987165;28;20034;-75
2022/06/01 13:02:01;;;;;;;2.35;1.40;;;;;;;;;;4986316;28;20134;-75
2022/06/01 13:04:28;;;;;;;2.10;1.38;;;;;;;;;;4973852;28;20502;-74
2022/06/01 13:06:54;;;;;;;3.03;1.90;;;;;;;;;;5003187;28;20882;-74
2022/06/01 13:09:25;;;;;;;4.28;1.67;;;;;;;;;;5002604;28;20105;-74
2022/06/01 13:11:59;;;;;;;6.10;1.70;;;;;;;;;;5002333;28;20487;-79
2022/06/01 13:14:27;;;;;;;3.45;1.65;;;;;;;;;;5003801;28;20061;-75
2022/06/01 13:16:53;;;;;;;4.22;1.30;;;;;;;;;;5003592;28;20092;-76
2022/06/01 13:19:19;;;;;;;4.88;1.70;;;;;;;;;;4963975;28;20459;-78
2022/06/01 13:21:52;;;;;;;3.50;1.30;;;;;;;;;;4981873;28;20058;-76
2022/06/01 13:24:18;;;;;;;5.20;1.20;;;;;;;;;;4993268;28;20051;-76
2022/06/01 13:26:46;;;;;;;5.85;0.90;;;;;;;;;;4960850;28;20094;-81
2022/06/01 13:29:21;;;;;;;3.03;1.05;;;;;;;;;;4995481;28;20565;-78
2022/06/01 13:31:48;;;;;;;3.47;2.00;;;;;;;;;;4973105;28;20490;-79
2022/06/01 13:34:19;;;;;;;3.35;1.95;;;;;;;;;;5001918;28;20038;-79
2022/06/01 13:36:47;;;;;;;3.03;1.75;;;;;;;;;;4996239;28;20457;-81
2022/06/01 13:39:14;;;;;;;4.22;1.58;;;;;;;;;;5005687;28;20045;-80
2022/06/01 13:41:51;;;;;;;2.40;1.60;;;;;;;;;;4988509;28;20090;-80
2022/06/01 13:44:36;;;;;;;3.08;2.00;;;;;;;;;;4995511;28;20042;-81
2022/06/01 13:47:03;;;;;;;3.80;1.90;;;;;;;;;;5005616;28;20093;-81
2022/06/01 13:49:29;;;;;;;3.35;2.00;;;;;;;;;;4986317;28;20039;-80
2022/06/01 13:51:57;;;;;;;5.72;2.78;;;;;;;;;;4966542;28;20039;-83
2022/06/01 13:54:27;;;;;;;4.57;3.20;;;;;;;;;;4959007;28;20054;-83
2022/06/01 13:57:11;;;;;;;4.30;3.38;;;;;;;;;;4992970;28;20047;-82
2022/06/01 13:59:39;;;;;;;5.93;3.90;;;;;;;;;;4956201;28;20082;-84
2022/06/01 14:02:23;;;;;;;6.13;3.60;;;;;;;;;;5013888;28;20057;-81
2022/06/01 14:04:59;;;;;;;3.55;2.80;;;;;;;;;;4996867;28;20047;-88
2022/06/01 14:07:25;;;;;;;;;;;;;;;;;;4973665;28;20038;-82
2022/06/01 14:09:53;;;;;;;3.55;2.65;;;;;;;;;;4973997;28;19926;-81
2022/06/01 14:12:20;;;;;;;4.82;2.90;;;;;;;;;;4991560;28;20073;-85
2022/06/01 14:14:47;;;;;;;4.55;2.88;;;;;;;;;;4974846;28;20109;-84
2022/06/01 14:17:17;;;;;;;3.35;2.28;;;;;;;;;;4988900;28;20057;-83
2022/06/01 14:19:46;;;;;;;2.80;1.88;;;;;;;;;;5004736;28;20565;-83
2022/06/01 14:22:13;;;;;;;3.22;1.90;;;;;;;;;;5005893;28;20043;-83
2022/06/01 14:30:09;;;;;;;5.18;2.15;;;;;;;;;;4973313;28;20046;-83
2022/06/01 14:32:38;;;;;;;4.03;2.20;;;;;;;;;;4973059;28;20047;-86
2022/06/01 14:35:06;;;;;;;5.78;2.50;;;;;;;;;;4971997;28;20054;-84
2022/06/01 14:37:34;;;;;;;3.00;2.28;;;;;;;;;;4982253;28;20502;-84
2022/06/01 14:40:00;;;;;;;4.30;2.00;;;;;;;;;;4957278;28;20038;-84
2022/06/01 14:42:27;;;;;;;2.88;2.08;;;;;;;;;;4954859;28;20487;-85
2022/06/01 14:44:53;;;;;;;2.72;1.92;;;;;;;;;;4969971;28;20046;-84
2022/06/01 14:47:19;;;;;;;4.70;2.40;;;;;;;;;;4996107;28;20457;-83
2022/06/01 14:49:45;;;;;;;4.93;2.70;;;;;;;;;;5009398;28;20049;-83
2022/06/01 14:52:14;;;;;;;3.75;2.50;;;;;;;;;;5009884;28;20093;-85
2022/06/01 14:54:41;;;;;;;3.70;2.95;;;;;;;;;;4993063;28;20070;-86
2022/06/01 14:57:09;;;;;;;4.85;2.85;;;;;;;;;;5009151;28;20049;-85
2022/06/01 14:59:36;;;;;;;3.70;2.67;;;;;;;;;;5009470;28;20042;-85
2022/06/01 15:02:03;;;;;;;3.65;2.53;;;;;;;;;;5008998;28;20043;-82
2022/06/01 15:04:31;;;;;;;4.90;2.90;;;;;;;;;;5008836;28;20053;-81
2022/06/01 15:06:58;;;;;;;4.55;3.25;;;;;;;;;;4998191;28;20190;-81
2022/06/01 15:09:24;;;;;;;3.97;3.10;;;;;;;;;;5002121;28;20051;-80
2022/06/01 15:11:50;;;;;;;3.65;3.00;;;;;;;;;;4968587;28;20553;-80
2022/06/01 15:14:17;;;;;;;5.45;3.28;;;;;;;;;;4977738;28;20133;-82
2022/06/01 15:16:44;;;;;;;4.38;3.20;;;;;;;;;;4976057;28;20042;-81
2022/06/01 15:19:12;;;;;;;4.03;3.35;;;;;;;;;;5003220;28;20392;-81
2022/06/01 15:21:38;;;;;;;3.75;3.00;;;;;;;;;;4986096;28;20125;-81
2022/06/01 15:24:05;;;;;;;4.43;3.03;;;;;;;;;;5001042;28;20113;-81
2022/06/01 15:26:31;;;;;;;4.47;3.03;;;;;;;;;;4973540;28;20553;-80
2022/06/01 15:28:57;;;;;;;3.78;3.10;;;;;;;;;;5003453;28;20060;-85